sensor_id;sensor_type;location;lat;lon;timestamp;P1;durP1;ratioP1;P2;durP2;ratioP2
31758;SDS011;36334;51.366;0.020;2022-08-03T00:02:32;16.63;;;6.00;;
31758;SDS011;36334;51.366;0.020;2022-08-03T00:05:22;17.67;;;5.00;;
31758;SDS011;36334;51.366;0.020;2022-08-03T00:08:08;15.45;;;5.65;;
31758;SDS011;36334;51.366;0.020;2022-08-03T00:10:54;14.00;;;5.13;;
31758;SDS011;36334;51.366;0.020;2022-08-03T00:13:40;13.30;;;5.57;;
31758;SDS011;36334;51.366;0.020;2022-08-03T00:16:27;13.73;;;4.93;;
31758;SDS011;36334;51.366;0.020;2022-08-03T00:19:13;13.45;;;5.20;;
31758;SDS011;36334;51.366;0.020;2022-08-03T00:21:59;14.27;;;4.85;;
31758;SDS011;36334;51.366;0.020;2022-08-03T00:24:45;15.70;;;6.80;;
31758;SDS011;36334;51.366;0.020;2022-08-03T00:27:31;11.52;;;5.47;;
31758;SDS011;36334;51.366;0.020;2022-08-03T00:30:19;12.27;;;4.97;;
31758;SDS011;36334;51.366;0.020;2022-08-03T00:33:11;13.82;;;4.80;;
31758;SDS011;36334;51.366;0.020;2022-08-03T00:35:59;14.65;;;5.88;;
31758;SDS011;36334;51.366;0.020;2022-08-03T00:38:45;17.80;;;5.63;;
31758;SDS011;36334;51.366;0.020;2022-08-03T00:41:32;15.73;;;6.07;;
31758;SDS011;36334;51.366;0.020;2022-08-03T00:44:19;17.55;;;5.25;;
31758;SDS011;36334;51.366;0.020;2022-08-03T00:47:05;16.17;;;5.88;;
31758;SDS011;36334;51.366;0.020;2022-08-03T00:49:51;20.45;;;6.03;;
31758;SDS011;36334;51.366;0.020;2022-08-03T00:52:38;11.88;;;5.30;;
31758;SDS011;36334;51.366;0.020;2022-08-03T00:55:25;14.68;;;5.97;;
31758;SDS011;36334;51.366;0.020;2022-08-03T00:58:11;15.57;;;5.55;;
31758;SDS011;36334;51.366;0.020;2022-08-03T01:00:58;14.80;;;5.45;;
31758;SDS011;36334;51.366;0.020;2022-08-03T01:03:44;11.85;;;5.63;;
31758;SDS011;36334;51.366;0.020;2022-08-03T01:06:35;13.02;;;5.53;;
31758;SDS011;36334;51.366;0.020;2022-08-03T01:09:45;12.43;;;6.03;;
31758;SDS011;36334;51.366;0.020;2022-08-03T01:15:42;12.80;;;5.57;;
31758;SDS011;36334;51.366;0.020;2022-08-03T01:18:53;13.68;;;6.10;;
31758;SDS011;36334;51.366;0.020;2022-08-03T01:25:04;14.60;;;6.38;;
31758;SDS011;36334;51.366;0.020;2022-08-03T01:28:01;20.23;;;9.35;;
31758;SDS011;36334;51.366;0.020;2022-08-03T01:30:57;15.40;;;8.73;;
31758;SDS011;36334;51.366;0.020;2022-08-03T01:33:51;18.67;;;8.25;;
31758;SDS011;36334;51.366;0.020;2022-08-03T01:36:48;18.45;;;7.97;;
31758;SDS011;36334;51.366;0.020;2022-08-03T01:39:38;22.90;;;8.43;;
31758;SDS011;36334;51.366;0.020;2022-08-03T01:42:26;17.48;;;8.55;;
31758;SDS011;36334;51.366;0.020;2022-08-03T01:45:15;20.45;;;9.32;;
31758;SDS011;36334;51.366;0.020;2022-08-03T01:48:03;14.77;;;8.68;;
31758;SDS011;36334;51.366;0.020;2022-08-03T01:50:51;18.52;;;8.30;;
31758;SDS011;36334;51.366;0.020;2022-08-03T01:53:41;13.18;;;8.98;;
31758;SDS011;36334;51.366;0.020;2022-08-03T01:56:28;20.25;;;10.02;;
31758;SDS011;36334;51.366;0.020;2022-08-03T01:59:15;13.07;;;9.02;;
31758;SDS011;36334;51.366;0.020;2022-08-03T02:02:04;18.40;;;9.55;;
31758;SDS011;36334;51.366;0.020;2022-08-03T02:05:12;19.80;;;10.48;;
31758;SDS011;36334;51.366;0.020;2022-08-03T02:08:03;17.40;;;8.75;;
31758;SDS011;36334;51.366;0.020;2022-08-03T02:10:52;13.90;;;8.52;;
31758;SDS011;36334;51.366;0.020;2022-08-03T02:13:41;15.00;;;8.10;;
31758;SDS011;36334;51.366;0.020;2022-08-03T02:16:30;17.02;;;8.43;;
31758;SDS011;36334;51.366;0.020;2022-08-03T02:19:18;14.77;;;7.90;;
31758;SDS011;36334;51.366;0.020;2022-08-03T02:22:07;13.77;;;7.75;;
31758;SDS011;36334;51.366;0.020;2022-08-03T02:24:56;15.70;;;7.40;;
31758;SDS011;36334;51.366;0.020;2022-08-03T02:27:45;17.15;;;7.78;;
31758;SDS011;36334;51.366;0.020;2022-08-03T02:30:38;16.30;;;7.13;;
31758;SDS011;36334;51.366;0.020;2022-08-03T02:33:38;11.50;;;7.43;;
31758;SDS011;36334;51.366;0.020;2022-08-03T02:36:28;11.80;;;7.13;;
31758;SDS011;36334;51.366;0.020;2022-08-03T02:39:18;19.20;;;7.60;;
31758;SDS011;36334;51.366;0.020;2022-08-03T02:42:07;15.05;;;5.95;;
31758;SDS011;36334;51.366;0.020;2022-08-03T02:44:58;13.68;;;5.85;;
31758;SDS011;36334;51.366;0.020;2022-08-03T02:47:47;11.55;;;5.35;;
31758;SDS011;36334;51.366;0.020;2022-08-03T02:50:39;23.65;;;5.60;;
31758;SDS011;36334;51.366;0.020;2022-08-03T02:53:27;10.77;;;4.55;;
31758;SDS011;36334;51.366;0.020;2022-08-03T02:56:16;13.10;;;4.38;;
31758;SDS011;36334;51.366;0.020;2022-08-03T02:59:07;12.07;;;5.32;;
31758;SDS011;36334;51.366;0.020;2022-08-03T03:01:55;12.23;;;4.53;;
31758;SDS011;36334;51.366;0.020;2022-08-03T03:04:44;11.90;;;4.32;;
31758;SDS011;36334;51.366;0.020;2022-08-03T03:07:51;11.65;;;4.53;;
31758;SDS011;36334;51.366;0.020;2022-08-03T03:10:39;16.67;;;4.28;;
31758;SDS011;36334;51.366;0.020;2022-08-03T03:13:29;12.43;;;4.47;;
31758;SDS011;36334;51.366;0.020;2022-08-03T03:16:16;11.55;;;4.57;;
31758;SDS011;36334;51.366;0.020;2022-08-03T03:19:03;15.40;;;5.35;;
31758;SDS011;36334;51.366;0.020;2022-08-03T03:21:50;7.00;;;4.82;;
31758;SDS011;36334;51.366;0.020;2022-08-03T03:24:37;13.75;;;5.72;;
31758;SDS011;36334;51.366;0.020;2022-08-03T03:27:26;11.55;;;5.28;;
31758;SDS011;36334;51.366;0.020;2022-08-03T03:30:14;10.52;;;4.80;;
31758;SDS011;36334;51.366;0.020;2022-08-03T03:33:00;9.00;;;5.15;;
31758;SDS011;36334;51.366;0.020;2022-08-03T03:35:47;13.80;;;5.00;;
31758;SDS011;36334;51.366;0.020;2022-08-03T03:38:34;14.88;;;6.30;;
31758;SDS011;36334;51.366;0.020;2022-08-03T03:41:21;11.80;;;5.85;;
31758;SDS011;36334;51.366;0.020;2022-08-03T03:44:07;14.98;;;6.82;;
31758;SDS011;36334;51.366;0.020;2022-08-03T03:46:54;20.80;;;6.03;;
31758;SDS011;36334;51.366;0.020;2022-08-03T03:49:42;9.93;;;5.93;;
31758;SDS011;36334;51.366;0.020;2022-08-03T03:52:30;13.98;;;5.70;;
31758;SDS011;36334;51.366;0.020;2022-08-03T03:55:17;14.52;;;6.13;;
31758;SDS011;36334;51.366;0.020;2022-08-03T03:58:04;11.00;;;6.18;;
31758;SDS011;36334;51.366;0.020;2022-08-03T04:00:52;14.07;;;5.32;;
31758;SDS011;36334;51.366;0.020;2022-08-03T04:03:38;13.00;;;5.90;;
31758;SDS011;36334;51.366;0.020;2022-08-03T04:06:24;13.40;;;6.80;;
31758;SDS011;36334;51.366;0.020;2022-08-03T04:09:29;12.23;;;5.60;;
31758;SDS011;36334;51.366;0.020;2022-08-03T04:12:35;11.60;;;6.38;;
31758;SDS011;36334;51.366;0.020;2022-08-03T04:15:35;16.00;;;6.63;;
31758;SDS011;36334;51.366;0.020;2022-08-03T04:18:24;13.77;;;6.82;;
31758;SDS011;36334;51.366;0.020;2022-08-03T04:21:14;16.42;;;7.43;;
31758;SDS011;36334;51.366;0.020;2022-08-03T04:24:03;13.38;;;7.88;;
31758;SDS011;36334;51.366;0.020;2022-08-03T04:26:53;14.48;;;7.25;;
31758;SDS011;36334;51.366;0.020;2022-08-03T04:29:44;21.85;;;8.10;;
31758;SDS011;36334;51.366;0.020;2022-08-03T04:32:33;11.00;;;7.43;;
31758;SDS011;36334;51.366;0.020;2022-08-03T04:35:22;16.52;;;7.13;;
31758;SDS011;36334;51.366;0.020;2022-08-03T04:38:30;15.15;;;8.48;;
31758;SDS011;36334;51.366;0.020;2022-08-03T04:41:36;12.63;;;6.93;;
31758;SDS011;36334;51.366;0.020;2022-08-03T04:44:43;13.82;;;7.05;;
31758;SDS011;36334;51.366;0.020;2022-08-03T04:47:31;14.93;;;6.82;;
31758;SDS011;36334;51.366;0.020;2022-08-03T04:50:19;12.38;;;7.25;;
31758;SDS011;36334;51.366;0.020;2022-08-03T04:53:21;12.35;;;7.05;;
31758;SDS011;36334;51.366;0.020;2022-08-03T04:56:10;16.63;;;7.75;;
31758;SDS011;36334;51.366;0.020;2022-08-03T04:58:56;16.10;;;8.38;;
31758;SDS011;36334;51.366;0.020;2022-08-03T05:01:47;15.90;;;8.85;;
31758;SDS011;36334;51.366;0.020;2022-08-03T05:04:33;16.00;;;8.90;;
31758;SDS011;36334;51.366;0.020;2022-08-03T05:07:19;17.15;;;8.82;;
31758;SDS011;36334;51.366;0.020;2022-08-03T05:10:10;17.95;;;7.95;;
31758;SDS011;36334;51.366;0.020;2022-08-03T05:13:01;18.00;;;6.80;;
31758;SDS011;36334;51.366;0.020;2022-08-03T05:15:48;11.30;;;6.65;;
31758;SDS011;36334;51.366;0.020;2022-08-03T05:18:33;10.10;;;6.78;;
31758;SDS011;36334;51.366;0.020;2022-08-03T05:21:20;12.43;;;6.70;;
31758;SDS011;36334;51.366;0.020;2022-08-03T05:24:06;17.27;;;7.00;;
31758;SDS011;36334;51.366;0.020;2022-08-03T05:26:53;16.45;;;8.00;;
31758;SDS011;36334;51.366;0.020;2022-08-03T05:29:39;19.23;;;6.40;;
31758;SDS011;36334;51.366;0.020;2022-08-03T05:32:27;14.48;;;7.40;;
31758;SDS011;36334;51.366;0.020;2022-08-03T05:35:14;16.73;;;6.18;;
31758;SDS011;36334;51.366;0.020;2022-08-03T05:38:23;15.95;;;7.13;;
31758;SDS011;36334;51.366;0.020;2022-08-03T05:41:13;13.55;;;7.38;;
31758;SDS011;36334;51.366;0.020;2022-08-03T05:44:07;14.70;;;6.90;;
31758;SDS011;36334;51.366;0.020;2022-08-03T05:46:54;16.10;;;7.20;;
31758;SDS011;36334;51.366;0.020;2022-08-03T05:49:40;17.67;;;7.93;;
31758;SDS011;36334;51.366;0.020;2022-08-03T05:52:27;11.77;;;7.20;;
31758;SDS011;36334;51.366;0.020;2022-08-03T05:55:13;18.90;;;7.53;;
31758;SDS011;36334;51.366;0.020;2022-08-03T05:58:03;11.98;;;7.75;;
31758;SDS011;36334;51.366;0.020;2022-08-03T06:00:50;14.70;;;9.35;;
31758;SDS011;36334;51.366;0.020;2022-08-03T06:03:36;13.48;;;7.75;;
31758;SDS011;36334;51.366;0.020;2022-08-03T06:06:22;14.43;;;7.95;;
31758;SDS011;36334;51.366;0.020;2022-08-03T06:09:09;14.18;;;7.93;;
31758;SDS011;36334;51.366;0.020;2022-08-03T06:11:56;15.25;;;8.00;;
31758;SDS011;36334;51.366;0.020;2022-08-03T06:14:42;12.68;;;7.50;;
31758;SDS011;36334;51.366;0.020;2022-08-03T06:17:29;11.43;;;6.63;;
31758;SDS011;36334;51.366;0.020;2022-08-03T06:20:22;10.00;;;6.65;;
31758;SDS011;36334;51.366;0.020;2022-08-03T06:23:11;10.88;;;5.70;;
31758;SDS011;36334;51.366;0.020;2022-08-03T06:26:02;12.45;;;6.38;;
31758;SDS011;36334;51.366;0.020;2022-08-03T06:28:49;11.32;;;6.55;;
31758;SDS011;36334;51.366;0.020;2022-08-03T06:31:39;15.20;;;6.28;;
31758;SDS011;36334;51.366;0.020;2022-08-03T06:34:26;11.43;;;5.20;;
31758;SDS011;36334;51.366;0.020;2022-08-03T06:37:18;9.93;;;4.90;;
31758;SDS011;36334;51.366;0.020;2022-08-03T06:40:05;9.40;;;4.07;;
31758;SDS011;36334;51.366;0.020;2022-08-03T06:42:58;10.20;;;4.80;;
31758;SDS011;36334;51.366;0.020;2022-08-03T06:45:48;11.25;;;5.22;;
31758;SDS011;36334;51.366;0.020;2022-08-03T06:48:34;8.27;;;4.15;;
31758;SDS011;36334;51.366;0.020;2022-08-03T06:51:25;11.88;;;4.45;;
31758;SDS011;36334;51.366;0.020;2022-08-03T06:54:32;8.13;;;4.15;;
31758;SDS011;36334;51.366;0.020;2022-08-03T06:57:25;6.85;;;3.78;;
31758;SDS011;36334;51.366;0.020;2022-08-03T07:00:15;5.75;;;3.78;;
31758;SDS011;36334;51.366;0.020;2022-08-03T07:03:02;7.05;;;3.92;;
31758;SDS011;36334;51.366;0.020;2022-08-03T07:05:48;10.32;;;3.78;;
31758;SDS011;36334;51.366;0.020;2022-08-03T07:08:43;5.03;;;3.65;;
31758;SDS011;36334;51.366;0.020;2022-08-03T07:11:29;5.60;;;2.83;;
31758;SDS011;36334;51.366;0.020;2022-08-03T07:14:16;3.95;;;2.72;;
31758;SDS011;36334;51.366;0.020;2022-08-03T07:17:02;6.40;;;3.50;;
31758;SDS011;36334;51.366;0.020;2022-08-03T07:19:57;9.43;;;3.65;;
31758;SDS011;36334;51.366;0.020;2022-08-03T07:22:46;4.90;;;2.53;;
31758;SDS011;36334;51.366;0.020;2022-08-03T07:25:33;4.20;;;2.70;;
31758;SDS011;36334;51.366;0.020;2022-08-03T07:28:20;5.10;;;3.22;;
31758;SDS011;36334;51.366;0.020;2022-08-03T07:31:06;5.47;;;2.85;;
31758;SDS011;36334;51.366;0.020;2022-08-03T07:33:52;7.10;;;2.85;;
31758;SDS011;36334;51.366;0.020;2022-08-03T07:36:39;5.72;;;2.80;;
31758;SDS011;36334;51.366;0.020;2022-08-03T07:39:25;7.55;;;2.92;;
31758;SDS011;36334;51.366;0.020;2022-08-03T07:42:11;6.70;;;3.03;;
31758;SDS011;36334;51.366;0.020;2022-08-03T07:44:57;3.55;;;2.70;;
31758;SDS011;36334;51.366;0.020;2022-08-03T07:47:43;6.25;;;2.92;;
31758;SDS011;36334;51.366;0.020;2022-08-03T07:50:38;5.03;;;2.50;;
31758;SDS011;36334;51.366;0.020;2022-08-03T07:53:25;6.18;;;2.95;;
31758;SDS011;36334;51.366;0.020;2022-08-03T07:56:11;3.88;;;2.33;;
31758;SDS011;36334;51.366;0.020;2022-08-03T07:58:57;3.17;;;2.17;;
31758;SDS011;36334;51.366;0.020;2022-08-03T08:01:43;4.47;;;2.70;;
31758;SDS011;36334;51.366;0.020;2022-08-03T08:04:30;3.83;;;2.05;;
31758;SDS011;36334;51.366;0.020;2022-08-03T08:07:16;6.47;;;2.40;;
31758;SDS011;36334;51.366;0.020;2022-08-03T08:10:05;5.00;;;1.95;;
31758;SDS011;36334;51.366;0.020;2022-08-03T08:12:55;3.08;;;1.95;;
31758;SDS011;36334;51.366;0.020;2022-08-03T08:15:43;3.75;;;1.80;;
31758;SDS011;36334;51.366;0.020;2022-08-03T08:18:31;2.47;;;1.60;;
31758;SDS011;36334;51.366;0.020;2022-08-03T08:21:18;2.58;;;1.63;;
31758;SDS011;36334;51.366;0.020;2022-08-03T08:24:05;5.63;;;1.35;;
31758;SDS011;36334;51.366;0.020;2022-08-03T08:27:02;3.10;;;1.52;;
31758;SDS011;36334;51.366;0.020;2022-08-03T08:29:49;2.53;;;1.50;;
31758;SDS011;36334;51.366;0.020;2022-08-03T08:32:40;3.58;;;1.48;;
31758;SDS011;36334;51.366;0.020;2022-08-03T08:35:27;4.78;;;1.70;;
31758;SDS011;36334;51.366;0.020;2022-08-03T08:38:13;2.50;;;1.70;;
31758;SDS011;36334;51.366;0.020;2022-08-03T08:40:59;2.42;;;1.60;;
31758;SDS011;36334;51.366;0.020;2022-08-03T08:43:46;2.30;;;1.30;;
31758;SDS011;36334;51.366;0.020;2022-08-03T08:46:32;2.40;;;1.73;;
31758;SDS011;36334;51.366;0.020;2022-08-03T08:49:18;3.35;;;2.05;;
31758;SDS011;36334;51.366;0.020;2022-08-03T08:52:09;4.20;;;1.85;;
31758;SDS011;36334;51.366;0.020;2022-08-03T08:55:17;2.50;;;1.50;;
31758;SDS011;36334;51.366;0.020;2022-08-03T08:58:07;7.22;;;1.52;;
31758;SDS011;36334;51.366;0.020;2022-08-03T09:00:55;3.42;;;1.50;;
31758;SDS011;36334;51.366;0.020;2022-08-03T09:03:42;3.03;;;1.48;;
31758;SDS011;36334;51.366;0.020;2022-08-03T09:06:30;2.70;;;1.40;;
31758;SDS011;36334;51.366;0.020;2022-08-03T09:09:17;2.55;;;1.70;;
31758;SDS011;36334;51.366;0.020;2022-08-03T09:12:23;5.90;;;2.13;;
31758;SDS011;36334;51.366;0.020;2022-08-03T09:15:29;4.05;;;2.10;;
31758;SDS011;36334;51.366;0.020;2022-08-03T09:18:27;3.50;;;2.10;;
31758;SDS011;36334;51.366;0.020;2022-08-03T09:21:24;3.10;;;2.05;;
31758;SDS011;36334;51.366;0.020;2022-08-03T09:24:18;4.25;;;2.30;;
31758;SDS011;36334;51.366;0.020;2022-08-03T09:27:28;3.95;;;1.50;;
31758;SDS011;36334;51.366;0.020;2022-08-03T09:30:26;3.22;;;1.77;;
31758;SDS011;36334;51.366;0.020;2022-08-03T09:33:19;2.35;;;1.50;;
31758;SDS011;36334;51.366;0.020;2022-08-03T09:36:05;2.90;;;1.52;;
31758;SDS011;36334;51.366;0.020;2022-08-03T09:39:02;2.47;;;1.55;;
31758;SDS011;36334;51.366;0.020;2022-08-03T09:42:07;2.97;;;1.70;;
31758;SDS011;36334;51.366;0.020;2022-08-03T09:44:59;5.78;;;1.80;;
31758;SDS011;36334;51.366;0.020;2022-08-03T09:47:46;3.28;;;1.67;;
31758;SDS011;36334;51.366;0.020;2022-08-03T09:50:46;3.97;;;2.10;;
31758;SDS011;36334;51.366;0.020;2022-08-03T09:53:44;3.42;;;1.83;;
31758;SDS011;36334;51.366;0.020;2022-08-03T09:56:45;4.63;;;2.20;;
31758;SDS011;36334;51.366;0.020;2022-08-03T09:59:32;3.10;;;1.98;;
31758;SDS011;36334;51.366;0.020;2022-08-03T10:02:20;5.85;;;2.10;;
31758;SDS011;36334;51.366;0.020;2022-08-03T10:05:11;6.68;;;3.05;;
31758;SDS011;36334;51.366;0.020;2022-08-03T10:08:09;6.18;;;2.83;;
31758;SDS011;36334;51.366;0.020;2022-08-03T10:11:00;3.65;;;2.35;;
31758;SDS011;36334;51.366;0.020;2022-08-03T10:13:46;6.35;;;2.10;;
31758;SDS011;36334;51.366;0.020;2022-08-03T10:16:36;2.65;;;1.70;;
31758;SDS011;36334;51.366;0.020;2022-08-03T10:19:23;3.13;;;1.98;;
31758;SDS011;36334;51.366;0.020;2022-08-03T10:25:08;3.75;;;1.95;;
31758;SDS011;36334;51.366;0.020;2022-08-03T10:27:58;3.65;;;1.80;;
31758;SDS011;36334;51.366;0.020;2022-08-03T10:30:49;5.63;;;2.17;;
31758;SDS011;36334;51.366;0.020;2022-08-03T10:33:41;5.35;;;2.20;;
31758;SDS011;36334;51.366;0.020;2022-08-03T10:36:37;4.72;;;1.85;;
31758;SDS011;36334;51.366;0.020;2022-08-03T10:39:28;3.30;;;2.08;;
31758;SDS011;36334;51.366;0.020;2022-08-03T10:42:14;3.85;;;1.95;;
31758;SDS011;36334;51.366;0.020;2022-08-03T10:45:20;3.08;;;1.98;;
31758;SDS011;36334;51.366;0.020;2022-08-03T10:48:12;5.75;;;2.42;;
31758;SDS011;36334;51.366;0.020;2022-08-03T10:50:59;6.70;;;2.45;;
31758;SDS011;36334;51.366;0.020;2022-08-03T10:53:49;6.75;;;2.45;;
31758;SDS011;36334;51.366;0.020;2022-08-03T10:56:40;7.60;;;2.42;;
31758;SDS011;36334;51.366;0.020;2022-08-03T10:59:59;6.63;;;2.10;;
31758;SDS011;36334;51.366;0.020;2022-08-03T11:03:01;7.90;;;2.22;;
31758;SDS011;36334;51.366;0.020;2022-08-03T11:06:12;7.70;;;2.40;;
31758;SDS011;36334;51.366;0.020;2022-08-03T11:09:22;6.18;;;2.30;;
31758;SDS011;36334;51.366;0.020;2022-08-03T11:12:24;7.00;;;2.22;;
31758;SDS011;36334;51.366;0.020;2022-08-03T11:15:17;4.20;;;2.15;;
31758;SDS011;36334;51.366;0.020;2022-08-03T11:18:17;5.55;;;2.70;;
31758;SDS011;36334;51.366;0.020;2022-08-03T11:21:04;9.23;;;3.05;;
31758;SDS011;36334;51.366;0.020;2022-08-03T11:23:51;6.65;;;2.63;;
31758;SDS011;36334;51.366;0.020;2022-08-03T11:27:15;6.55;;;2.70;;
31758;SDS011;36334;51.366;0.020;2022-08-03T11:33:04;5.78;;;2.50;;
31758;SDS011;36334;51.366;0.020;2022-08-03T11:36:00;4.32;;;2.88;;
31758;SDS011;36334;51.366;0.020;2022-08-03T11:42:29;5.50;;;3.05;;
31758;SDS011;36334;51.366;0.020;2022-08-03T11:45:14;7.18;;;2.67;;
31758;SDS011;36334;51.366;0.020;2022-08-03T11:48:02;10.57;;;2.72;;
31758;SDS011;36334;51.366;0.020;2022-08-03T11:51:00;5.15;;;3.00;;
31758;SDS011;36334;51.366;0.020;2022-08-03T11:53:52;5.45;;;2.50;;
31758;SDS011;36334;51.366;0.020;2022-08-03T11:56:46;7.15;;;2.67;;
31758;SDS011;36334;51.366;0.020;2022-08-03T11:59:34;7.82;;;2.10;;
31758;SDS011;36334;51.366;0.020;2022-08-03T12:02:25;3.85;;;2.42;;
31758;SDS011;36334;51.366;0.020;2022-08-03T12:05:11;8.20;;;2.10;;
31758;SDS011;36334;51.366;0.020;2022-08-03T12:07:57;4.65;;;2.28;;
31758;SDS011;36334;51.366;0.020;2022-08-03T12:10:50;7.43;;;2.60;;
31758;SDS011;36334;51.366;0.020;2022-08-03T12:13:41;6.10;;;2.45;;
31758;SDS011;36334;51.366;0.020;2022-08-03T12:16:52;6.45;;;2.15;;
31758;SDS011;36334;51.366;0.020;2022-08-03T12:19:41;7.05;;;2.30;;
31758;SDS011;36334;51.366;0.020;2022-08-03T12:22:37;6.35;;;1.98;;
31758;SDS011;36334;51.366;0.020;2022-08-03T12:25:25;4.22;;;1.98;;
31758;SDS011;36334;51.366;0.020;2022-08-03T12:28:24;4.47;;;2.00;;
31758;SDS011;36334;51.366;0.020;2022-08-03T12:31:24;7.88;;;2.13;;
31758;SDS011;36334;51.366;0.020;2022-08-03T12:34:10;6.32;;;1.80;;
31758;SDS011;36334;51.366;0.020;2022-08-03T12:36:57;4.97;;;1.85;;
31758;SDS011;36334;51.366;0.020;2022-08-03T12:39:48;8.55;;;2.03;;
31758;SDS011;36334;51.366;0.020;2022-08-03T12:42:49;6.53;;;2.00;;
31758;SDS011;36334;51.366;0.020;2022-08-03T12:45:36;9.85;;;2.13;;
31758;SDS011;36334;51.366;0.020;2022-08-03T12:48:22;5.22;;;1.88;;
31758;SDS011;36334;51.366;0.020;2022-08-03T12:51:12;4.38;;;1.40;;
31758;SDS011;36334;51.366;0.020;2022-08-03T12:53:58;8.00;;;1.70;;
31758;SDS011;36334;51.366;0.020;2022-08-03T12:56:56;5.55;;;1.65;;
31758;SDS011;36334;51.366;0.020;2022-08-03T13:00:08;4.10;;;1.98;;
31758;SDS011;36334;51.366;0.020;2022-08-03T13:03:13;8.70;;;2.15;;
31758;SDS011;36334;51.366;0.020;2022-08-03T13:06:23;8.02;;;2.33;;
31758;SDS011;36334;51.366;0.020;2022-08-03T13:09:10;6.50;;;1.98;;
31758;SDS011;36334;51.366;0.020;2022-08-03T13:12:06;3.97;;;1.30;;
31758;SDS011;36334;51.366;0.020;2022-08-03T13:15:05;4.70;;;1.48;;
31758;SDS011;36334;51.366;0.020;2022-08-03T13:17:55;6.63;;;2.00;;
31758;SDS011;36334;51.366;0.020;2022-08-03T13:20:41;7.65;;;1.92;;
31758;SDS011;36334;51.366;0.020;2022-08-03T13:23:28;6.38;;;1.85;;
31758;SDS011;36334;51.366;0.020;2022-08-03T13:26:17;6.30;;;1.90;;
31758;SDS011;36334;51.366;0.020;2022-08-03T13:29:14;5.05;;;1.73;;
31758;SDS011;36334;51.366;0.020;2022-08-03T13:32:03;6.30;;;2.20;;
31758;SDS011;36334;51.366;0.020;2022-08-03T13:34:50;8.82;;;1.88;;
31758;SDS011;36334;51.366;0.020;2022-08-03T13:37:36;4.80;;;1.50;;
31758;SDS011;36334;51.366;0.020;2022-08-03T13:40:22;7.13;;;1.60;;
31758;SDS011;36334;51.366;0.020;2022-08-03T13:43:14;7.25;;;1.80;;
31758;SDS011;36334;51.366;0.020;2022-08-03T13:46:00;9.70;;;2.50;;
31758;SDS011;36334;51.366;0.020;2022-08-03T13:48:46;7.57;;;2.28;;
31758;SDS011;36334;51.366;0.020;2022-08-03T13:51:33;8.90;;;1.80;;
31758;SDS011;36334;51.366;0.020;2022-08-03T13:54:19;9.75;;;2.40;;
31758;SDS011;36334;51.366;0.020;2022-08-03T13:57:05;4.25;;;2.10;;
31758;SDS011;36334;51.366;0.020;2022-08-03T14:00:12;6.00;;;1.75;;
31758;SDS011;36334;51.366;0.020;2022-08-03T14:03:13;4.18;;;1.80;;
31758;SDS011;36334;51.366;0.020;2022-08-03T14:06:00;5.43;;;2.20;;
31758;SDS011;36334;51.366;0.020;2022-08-03T14:08:46;5.50;;;1.58;;
31758;SDS011;36334;51.366;0.020;2022-08-03T14:11:32;9.75;;;1.98;;
31758;SDS011;36334;51.366;0.020;2022-08-03T14:14:39;8.73;;;2.03;;
31758;SDS011;36334;51.366;0.020;2022-08-03T14:17:29;7.65;;;1.83;;
31758;SDS011;36334;51.366;0.020;2022-08-03T14:20:35;6.47;;;2.22;;
31758;SDS011;36334;51.366;0.020;2022-08-03T14:23:36;8.43;;;2.22;;
31758;SDS011;36334;51.366;0.020;2022-08-03T14:26:22;3.85;;;1.85;;
31758;SDS011;36334;51.366;0.020;2022-08-03T14:29:08;5.60;;;2.50;;
31758;SDS011;36334;51.366;0.020;2022-08-03T14:31:54;9.63;;;2.20;;
31758;SDS011;36334;51.366;0.020;2022-08-03T14:34:56;8.13;;;2.22;;
31758;SDS011;36334;51.366;0.020;2022-08-03T14:37:45;8.48;;;2.25;;
31758;SDS011;36334;51.366;0.020;2022-08-03T14:40:34;5.93;;;1.65;;
31758;SDS011;36334;51.366;0.020;2022-08-03T14:43:23;5.35;;;1.92;;
31758;SDS011;36334;51.366;0.020;2022-08-03T14:46:18;8.68;;;2.08;;
31758;SDS011;36334;51.366;0.020;2022-08-03T14:49:04;8.02;;;2.90;;
31758;SDS011;36334;51.366;0.020;2022-08-03T14:52:10;9.18;;;2.50;;
31758;SDS011;36334;51.366;0.020;2022-08-03T14:55:00;7.32;;;1.98;;
31758;SDS011;36334;51.366;0.020;2022-08-03T14:57:47;6.47;;;2.28;;
31758;SDS011;36334;51.366;0.020;2022-08-03T15:00:33;9.85;;;2.40;;
31758;SDS011;36334;51.366;0.020;2022-08-03T15:03:21;6.60;;;2.40;;
31758;SDS011;36334;51.366;0.020;2022-08-03T15:06:09;4.32;;;1.77;;
31758;SDS011;36334;51.366;0.020;2022-08-03T15:08:55;5.93;;;2.00;;
31758;SDS011;36334;51.366;0.020;2022-08-03T15:12:01;5.72;;;1.95;;
31758;SDS011;36334;51.366;0.020;2022-08-03T15:14:47;3.90;;;1.95;;
31758;SDS011;36334;51.366;0.020;2022-08-03T15:17:34;6.00;;;1.90;;
31758;SDS011;36334;51.366;0.020;2022-08-03T15:20:19;8.73;;;2.58;;
31758;SDS011;36334;51.366;0.020;2022-08-03T15:23:26;4.47;;;1.90;;
31758;SDS011;36334;51.366;0.020;2022-08-03T15:26:12;5.88;;;1.77;;
31758;SDS011;36334;51.366;0.020;2022-08-03T15:29:18;4.22;;;1.58;;
31758;SDS011;36334;51.366;0.020;2022-08-03T15:32:24;4.57;;;1.80;;
31758;SDS011;36334;51.366;0.020;2022-08-03T15:35:11;5.63;;;1.80;;
31758;SDS011;36334;51.366;0.020;2022-08-03T15:37:57;10.00;;;1.95;;
31758;SDS011;36334;51.366;0.020;2022-08-03T15:40:43;7.43;;;1.65;;
31758;SDS011;36334;51.366;0.020;2022-08-03T15:43:29;5.35;;;1.80;;
31758;SDS011;36334;51.366;0.020;2022-08-03T15:46:16;5.38;;;1.65;;
31758;SDS011;36334;51.366;0.020;2022-08-03T15:49:17;4.83;;;1.60;;
31758;SDS011;36334;51.366;0.020;2022-08-03T15:52:05;8.32;;;1.90;;
31758;SDS011;36334;51.366;0.020;2022-08-03T15:54:51;8.73;;;2.33;;
31758;SDS011;36334;51.366;0.020;2022-08-03T15:57:37;4.40;;;1.20;;
31758;SDS011;36334;51.366;0.020;2022-08-03T16:00:43;3.83;;;1.40;;
31758;SDS011;36334;51.366;0.020;2022-08-03T16:03:29;5.43;;;1.73;;
31758;SDS011;36334;51.366;0.020;2022-08-03T16:06:21;5.93;;;1.73;;
31758;SDS011;36334;51.366;0.020;2022-08-03T16:09:20;4.93;;;1.42;;
31758;SDS011;36334;51.366;0.020;2022-08-03T16:12:26;5.70;;;1.70;;
31758;SDS011;36334;51.366;0.020;2022-08-03T16:15:14;8.13;;;2.30;;
31758;SDS011;36334;51.366;0.020;2022-08-03T16:18:00;6.07;;;1.90;;
31758;SDS011;36334;51.366;0.020;2022-08-03T16:20:46;5.05;;;1.73;;
31758;SDS011;36334;51.366;0.020;2022-08-03T16:23:33;5.15;;;1.73;;
31758;SDS011;36334;51.366;0.020;2022-08-03T16:26:22;4.53;;;1.40;;
31758;SDS011;36334;51.366;0.020;2022-08-03T16:29:12;6.00;;;1.52;;
31758;SDS011;36334;51.366;0.020;2022-08-03T16:32:08;3.28;;;1.58;;
31758;SDS011;36334;51.366;0.020;2022-08-03T16:34:54;4.68;;;1.67;;
31758;SDS011;36334;51.366;0.020;2022-08-03T16:37:40;5.10;;;1.80;;
31758;SDS011;36334;51.366;0.020;2022-08-03T16:40:41;3.88;;;1.38;;
31758;SDS011;36334;51.366;0.020;2022-08-03T16:43:27;3.13;;;1.08;;
31758;SDS011;36334;51.366;0.020;2022-08-03T16:46:13;2.13;;;1.30;;
31758;SDS011;36334;51.366;0.020;2022-08-03T16:48:59;2.95;;;1.30;;
31758;SDS011;36334;51.366;0.020;2022-08-03T16:51:45;2.22;;;1.13;;
31758;SDS011;36334;51.366;0.020;2022-08-03T16:54:35;4.35;;;1.55;;
31758;SDS011;36334;51.366;0.020;2022-08-03T16:57:24;3.13;;;1.38;;
31758;SDS011;36334;51.366;0.020;2022-08-03T17:00:32;3.35;;;1.70;;
31758;SDS011;36334;51.366;0.020;2022-08-03T17:03:26;5.85;;;1.70;;
31758;SDS011;36334;51.366;0.020;2022-08-03T17:06:26;3.03;;;1.20;;
31758;SDS011;36334;51.366;0.020;2022-08-03T17:12:05;3.50;;;1.52;;
31758;SDS011;36334;51.366;0.020;2022-08-03T17:14:55;4.60;;;1.25;;
31758;SDS011;36334;51.366;0.020;2022-08-03T17:18:03;3.22;;;1.45;;
31758;SDS011;36334;51.366;0.020;2022-08-03T17:20:53;2.80;;;1.30;;
31758;SDS011;36334;51.366;0.020;2022-08-03T17:23:44;4.05;;;0.95;;
31758;SDS011;36334;51.366;0.020;2022-08-03T17:27:05;5.10;;;1.35;;